Time;durP1;ratioP1;P1;durP2;ratioP2;P2;SDS_P1;SDS_P2;PMS_P1;PMS_P2;Temp;Humidity;BMP_temperature;BMP_pressure;BME280_temperature;BME280_humidity;BME280_pressure;Samples;Min_cycle;Max_cycle;Signal;HPM_P1;HPM_P2
2023/03/02 00:00:35;;;;;;;24.53;21.77;;;;;;;0.29;98.55;100520.44;5040783;28;20193;-72
2023/03/02 00:03:03;;;;;;;24.83;21.33;;;;;;;0.26;98.95;100527.97;5038695;28;20194;-75
2023/03/02 00:05:29;;;;;;;23.53;21.00;;;;;;;0.20;99.15;100525.22;5042670;28;20850;-73
2023/03/02 00:07:56;;;;;;;22.60;20.20;;;;;;;0.17;99.64;100524.22;5042348;28;20206;-73
2023/03/02 00:10:22;;;;;;;25.77;21.77;;;;;;;0.15;99.91;100519.91;5045047;28;20189;-73
2023/03/02 00:12:47;;;;;;;26.20;22.33;;;;;;;0.11;99.93;100515.56;5039397;28;20548;-73
2023/03/02 00:15:12;;;;;;;24.67;21.97;;;;;;;0.07;100.00;100513.69;5042594;28;20592;-73
2023/03/02 00:17:38;;;;;;;26.60;22.90;;;;;;;0.06;100.00;100501.78;5040857;28;21114;-73
2023/03/02 00:20:10;;;;;;;27.40;22.87;;;;;;;0.02;100.00;100505.00;5044020;28;20657;-73
2023/03/02 00:22:39;;;;;;;27.60;22.40;;;;;;;-0.03;100.00;100504.00;5041565;28;20205;-73
2023/03/02 00:25:06;;;;;;;26.57;22.53;;;;;;;-0.06;100.00;100502.19;5044201;28;20218;-74
2023/03/02 00:27:31;;;;;;;27.77;23.93;;;;;;;-0.07;100.00;100505.53;5040969;28;20499;-73
2023/03/02 00:29:56;;;;;;;28.60;23.40;;;;;;;-0.07;100.00;100509.78;5037149;28;20225;-74
2023/03/02 00:32:22;;;;;;;27.53;23.20;;;;;;;-0.08;100.00;100506.38;5043019;28;20183;-73
2023/03/02 00:34:48;;;;;;;28.23;24.20;;;;;;;-0.08;100.00;100503.81;5045895;28;20218;-74
2023/03/02 00:37:13;;;;;;;31.53;25.87;;;;;;;-0.06;100.00;100501.31;5042015;28;20272;-73
2023/03/02 00:39:38;;;;;;;30.00;25.23;;;;;;;-0.03;100.00;100504.84;5047184;28;20589;-74
2023/03/02 00:42:04;;;;;;;31.87;25.40;;;;;;;-0.08;100.00;100503.81;5040132;28;20220;-73
2023/03/02 00:44:29;;;;;;;32.23;25.73;;;;;;;-0.07;100.00;100499.59;5040597;28;20190;-73
2023/03/02 00:46:54;;;;;;;31.20;26.23;;;;;;;-0.10;100.00;100504.56;5045852;28;20738;-73
2023/03/02 00:49:21;;;;;;;32.20;26.70;;;;;;;-0.10;100.00;100504.56;5044225;28;20217;-73
2023/03/02 00:51:46;;;;;;;31.40;27.00;;;;;;;-0.13;100.00;100505.31;5045622;28;20190;-73
2023/03/02 00:54:12;;;;;;;31.83;27.57;;;;;;;-0.14;100.00;100507.78;5050910;28;20203;-74
2023/03/02 00:56:37;;;;;;;31.93;27.77;;;;;;;-0.14;100.00;100501.03;5050034;28;20178;-74
2023/03/02 00:59:25;;;;;;;31.17;27.77;;;;;;;-0.13;100.00;100495.13;5037373;28;20262;-73
2023/03/02 01:01:58;;;;;;;34.87;28.10;;;;;;;-0.21;100.00;100493.97;5040511;28;20616;-74
2023/03/02 01:04:30;;;;;;;34.07;28.27;;;;;;;-0.20;100.00;100505.88;5035879;28;20202;-74
2023/03/02 01:07:01;;;;;;;33.40;28.20;;;;;;;-0.14;100.00;100495.94;5043860;28;20222;-74
2023/03/02 01:09:27;;;;;;;34.57;30.27;;;;;;;-0.16;100.00;100484.84;5040587;28;20201;-74
2023/03/02 01:11:53;;;;;;;33.73;29.07;;;;;;;-0.19;100.00;100492.34;5040194;28;20193;-74
2023/03/02 01:14:18;;;;;;;33.73;29.03;;;;;;;-0.22;100.00;100490.56;5039965;28;20194;-74
2023/03/02 01:16:44;;;;;;;35.73;29.00;;;;;;;-0.15;100.00;100484.03;5042653;28;20606;-74
2023/03/02 01:19:09;;;;;;;33.73;29.00;;;;;;;-0.18;100.00;100481.38;5042261;28;20221;-73
2023/03/02 01:21:35;;;;;;;35.47;28.97;;;;;;;-0.16;100.00;100479.75;5039344;28;20572;-74
2023/03/02 01:24:00;;;;;;;36.50;30.10;;;;;;;-0.16;100.00;100478.09;5043695;28;20201;-74
2023/03/02 01:26:26;;;;;;;35.13;29.83;;;;;;;-0.16;100.00;100469.59;5042097;28;20307;-73
2023/03/02 01:28:54;;;;;;;34.87;28.30;;;;;;;-0.14;100.00;100470.50;5041058;28;20330;-74
2023/03/02 01:31:21;;;;;;;32.97;27.80;;;;;;;-0.10;100.00;100476.56;5042360;28;20760;-74
2023/03/02 01:33:46;;;;;;;34.37;28.40;;;;;;;-0.08;100.00;100459.69;5041939;28;20211;-73
2023/03/02 01:36:12;;;;;;;33.27;27.37;;;;;;;-0.09;100.00;100469.00;5043422;28;20641;-74
2023/03/02 01:38:37;;;;;;;32.93;28.33;;;;;;;-0.09;100.00;100463.03;5042991;28;20291;-74
2023/03/02 01:41:02;;;;;;;33.17;27.17;;;;;;;-0.12;100.00;100460.38;5042159;28;20271;-73
2023/03/02 01:43:28;;;;;;;35.37;29.00;;;;;;;-0.14;100.00;100459.44;5041225;28;20213;-73
2023/03/02 01:46:01;;;;;;;30.50;26.03;;;;;;;-0.11;100.00;100462.13;5042274;28;20214;-73
2023/03/02 01:48:29;;;;;;;31.57;27.43;;;;;;;-0.14;100.00;100452.69;5040555;28;20213;-73
2023/03/02 01:50:56;;;;;;;32.90;27.73;;;;;;;-0.14;100.00;100459.44;5042944;28;20197;-74
2023/03/02 01:53:27;;;;;;;35.17;28.40;;;;;;;-0.11;100.00;100446.84;5040780;28;20529;-74
2023/03/02 01:55:53;;;;;;;32.70;27.60;;;;;;;-0.13;100.00;100445.91;5035322;28;20774;-73
2023/03/02 01:58:19;;;;;;;33.27;27.97;;;;;;;-0.11;100.00;100441.75;5041541;28;20297;-73
2023/03/02 02:00:45;;;;;;;33.73;28.63;;;;;;;-0.12;100.00;100448.53;5040317;28;20200;-73
2023/03/02 02:03:19;;;;;;;31.37;26.87;;;;;;;-0.16;100.00;100444.16;5039370;28;20566;-73
2023/03/02 02:05:54;;;;;;;32.33;28.20;;;;;;;-0.15;100.00;100445.88;5042627;28;20224;-73
2023/03/02 02:08:20;;;;;;;34.63;28.53;;;;;;;-0.12;100.00;100442.56;5038194;28;20316;-73
2023/03/02 02:10:46;;;;;;;33.67;29.10;;;;;;;-0.13;100.00;100436.63;5039771;28;20195;-73
2023/03/02 02:13:11;;;;;;;33.43;29.33;;;;;;;-0.12;100.00;100432.41;5040511;28;20422;-73
2023/03/02 02:15:37;;;;;;;32.50;26.80;;;;;;;-0.08;100.00;100434.25;5040203;28;20338;-73
2023/03/02 02:18:03;;;;;;;31.60;27.83;;;;;;;-0.06;100.00;100428.41;5041391;28;21005;-73
2023/03/02 02:20:44;;;;;;;34.70;27.93;;;;;;;-0.04;100.00;100420.84;5039062;28;20241;-73
2023/03/02 02:23:15;;;;;;;33.83;28.37;;;;;;;-0.08;100.00;100422.41;5047464;28;20547;-74
2023/03/02 02:25:52;;;;;;;31.73;27.77;;;;;;;-0.11;100.00;100413.78;5041793;28;20634;-73
2023/03/02 02:28:26;;;;;;;33.90;28.03;;;;;;;-0.11;100.00;100418.88;5043885;28;20296;-73
2023/03/02 02:31:02;;;;;;;34.20;28.13;;;;;;;-0.16;100.00;100423.78;5039477;28;20190;-73
2023/03/02 02:33:28;;;;;;;31.37;27.50;;;;;;;-0.26;100.00;100420.03;5046227;28;20203;-72
2023/03/02 02:36:03;;;;;;;30.37;27.10;;;;;;;-0.30;100.00;100418.19;5046164;28;20190;-73
2023/03/02 02:38:30;;;;;;;33.03;27.70;;;;;;;-0.33;100.00;100421.47;5046448;28;20233;-72
2023/03/02 02:40:58;;;;;;;35.87;28.57;;;;;;;-0.36;100.00;100420.50;5044525;28;20195;-73
2023/03/02 02:43:26;;;;;;;34.13;29.50;;;;;;;-0.38;100.00;100417.91;5051489;28;20658;-73
2023/03/02 02:45:55;;;;;;;33.07;27.50;;;;;;;-0.41;100.00;100414.38;5052972;28;20217;-73
2023/03/02 02:48:23;;;;;;;33.13;28.80;;;;;;;-0.44;100.00;100409.16;5053106;28;20228;-75
2023/03/02 02:50:52;;;;;;;33.17;27.30;;;;;;;-0.48;100.00;100404.00;5051682;28;20196;-73
2023/03/02 02:53:23;;;;;;;34.13;28.60;;;;;;;-0.52;100.00;100413.97;5046490;28;20274;-73
2023/03/02 02:55:52;;;;;;;33.23;28.27;;;;;;;-0.52;100.00;100407.22;5049137;28;20190;-73
2023/03/02 02:58:30;;;;;;;34.23;27.63;;;;;;;-0.53;100.00;100409.72;5048689;28;20232;-72
2023/03/02 03:00:56;;;;;;;35.50;28.57;;;;;;;-0.55;100.00;100411.34;5047142;28;20212;-73
2023/03/02 03:03:30;;;;;;;34.03;28.20;;;;;;;-0.62;100.00;100413.63;5051100;28;20220;-73
2023/03/02 03:06:02;;;;;;;33.20;27.83;;;;;;;-0.63;100.00;100413.56;5048161;28;20871;-73
2023/03/02 03:08:42;;;;;;;36.87;29.60;;;;;;;-0.61;100.00;100417.06;5046359;28;20316;-73
2023/03/02 03:11:14;;;;;;;37.03;29.97;;;;;;;-0.56;100.00;100410.44;5041164;28;20193;-73
2023/03/02 03:13:42;;;;;;;34.40;28.27;;;;;;;-0.56;100.00;100423.16;5044880;28;20203;-73
2023/03/02 03:16:12;;;;;;;37.43;29.57;;;;;;;-0.54;100.00;100420.69;5040787;28;20186;-73
2023/03/02 03:18:37;;;;;;;35.27;30.13;;;;;;;-0.52;100.00;100421.59;5043771;28;20250;-73
2023/03/02 03:21:03;;;;;;;36.00;30.10;;;;;;;-0.51;100.00;100429.28;5040681;28;20677;-74
2023/03/02 03:23:29;;;;;;;36.30;30.17;;;;;;;-0.48;100.00;100426.00;5042647;28;20216;-74
2023/03/02 03:25:54;;;;;;;34.20;28.57;;;;;;;-0.48;100.00;100423.44;5043868;28;20209;-73
2023/03/02 03:28:19;;;;;;;36.57;28.80;;;;;;;-0.49;100.00;100429.34;5045808;28;20607;-73
2023/03/02 03:30:45;;;;;;;33.97;28.50;;;;;;;-0.52;100.00;100424.13;5042305;28;20189;-74
2023/03/02 03:33:13;;;;;;;34.30;28.90;;;;;;;-0.56;100.00;100417.22;5040873;28;20217;-74
2023/03/02 03:35:38;;;;;;;35.93;28.77;;;;;;;-0.56;100.00;100419.75;5049554;28;20193;-73
2023/03/02 03:38:05;;;;;;;32.97;26.37;;;;;;;-0.61;100.00;100414.50;5045540;28;20593;-73
2023/03/02 03:40:33;;;;;;;32.47;27.10;;;;;;;-0.71;100.00;100415.81;5042762;28;20195;-74
2023/03/02 03:43:02;;;;;;;32.07;27.93;;;;;;;-0.82;100.00;100414.50;5046123;28;20697;-74
2023/03/02 03:45:28;;;;;;;35.47;28.97;;;;;;;-0.85;100.00;100420.34;5045033;28;20194;-73
2023/03/02 03:47:53;;;;;;;34.57;27.57;;;;;;;-0.94;100.00;100420.00;5044667;28;20295;-74
2023/03/02 03:50:19;;;;;;;33.67;28.30;;;;;;;-0.95;100.00;100430.97;5043998;28;20284;-74
2023/03/02 03:52:44;;;;;;;34.80;29.30;;;;;;;-1.01;100.00;100426.50;5043680;28;20185;-73
2023/03/02 03:55:11;;;;;;;33.60;27.83;;;;;;;-1.09;100.00;100428.75;5045441;28;20189;-73
2023/03/02 03:57:37;;;;;;;36.93;29.30;;;;;;;-1.09;100.00;100427.84;5047760;28;20217;-73
2023/03/02 04:00:05;;;;;;;33.73;28.20;;;;;;;-1.14;100.00;100424.28;5048706;28;20198;-73
2023/03/02 04:02:30;;;;;;;36.20;29.47;;;;;;;-1.17;100.00;100427.53;5051144;28;20192;-73
2023/03/02 04:04:55;;;;;;;34.40;27.70;;;;;;;-1.17;100.00;100426.69;5046710;28;20196;-73
2023/03/02 04:07:21;;;;;;;35.87;29.43;;;;;;;-1.16;100.00;100421.66;5043837;28;20220;-73
2023/03/02 04:09:46;;;;;;;36.90;30.20;;;;;;;-1.13;100.00;100420.91;5043421;28;20184;-73
2023/03/02 04:12:11;;;;;;;37.77;29.87;;;;;;;-1.05;100.00;100429.72;5042203;28;20194;-73
2023/03/02 04:14:37;;;;;;;37.20;29.27;;;;;;;-1.04;100.00;100438.19;5039395;28;20552;-73
2023/03/02 04:17:04;;;;;;;33.30;27.80;;;;;;;-1.09;100.00;100431.28;5041198;28;20474;-73
2023/03/02 04:19:30;;;;;;;35.43;28.20;;;;;;;-1.13;100.00;100438.69;5042328;28;20194;-73
2023/03/02 04:21:57;;;;;;;36.17;28.63;;;;;;;-1.15;100.00;100442.88;5040633;28;20199;-73
2023/03/02 04:24:23;;;;;;;35.77;29.33;;;;;;;-1.18;100.00;100448.66;5043596;28;20218;-73
2023/03/02 04:26:49;;;;;;;38.37;31.37;;;;;;;-1.23;100.00;100440.00;5042243;28;20252;-74
2023/03/02 04:29:15;;;;;;;37.47;29.43;;;;;;;-1.26;100.00;100434.78;5040522;28;20588;-74
2023/03/02 04:31:40;;;;;;;34.83;29.33;;;;;;;-1.29;100.00;100427.94;5054112;28;20187;-73
2023/03/02 04:34:06;;;;;;;35.23;28.93;;;;;;;-1.30;100.00;100425.31;5085268;28;20189;-73
2023/03/02 04:36:34;;;;;;;33.83;29.33;;;;;;;-1.29;100.00;100427.94;5048099;28;20283;-73
2023/03/02 04:39:00;;;;;;;37.00;31.03;;;;;;;-1.27;100.00;100433.06;5045010;28;20224;-73
2023/03/02 04:41:25;;;;;;;37.70;30.53;;;;;;;-1.25;100.00;100422.16;5052085;28;20194;-73
2023/03/02 04:43:51;;;;;;;36.47;29.87;;;;;;;-1.19;100.00;100431.69;5048405;28;20581;-73
2023/03/02 04:46:22;;;;;;;38.20;29.37;;;;;;;-1.21;100.00;100430.75;5052701;28;20205;-73
2023/03/02 04:48:47;;;;;;;38.40;31.17;;;;;;;-1.24;100.00;100436.59;5049297;28;20207;-74
2023/03/02 04:51:25;;;;;;;36.20;29.27;;;;;;;-1.27;100.00;100433.91;5045620;28;20182;-73
2023/03/02 04:53:52;;;;;;;33.87;28.67;;;;;;;-1.31;100.00;100447.31;5045006;28;20189;-73
2023/03/02 04:56:17;;;;;;;36.63;29.17;;;;;;;-1.36;100.00;100437.78;5044268;28;20187;-73
2023/03/02 04:58:43;;;;;;;35.27;28.27;;;;;;;-1.42;100.00;100444.31;5044129;28;20569;-73
2023/03/02 05:01:09;;;;;;;34.70;28.23;;;;;;;-1.48;100.00;100441.50;5044764;28;20662;-73
2023/03/02 05:03:34;;;;;;;34.57;27.70;;;;;;;-1.52;100.00;100443.84;5049590;28;20286;-74
2023/03/02 05:06:02;;;;;;;36.00;29.50;;;;;;;-1.59;100.00;100435.09;5044594;28;20209;-73
2023/03/02 05:08:28;;;;;;;32.73;26.87;;;;;;;-1.64;100.00;100441.66;5037561;28;22132;-73
2023/03/02 05:10:53;;;;;;;35.77;28.37;;;;;;;-1.64;100.00;100428.97;5042461;28;20208;-73
2023/03/02 05:13:18;;;;;;;38.33;29.53;;;;;;;-1.59;100.00;100440.19;5057576;28;20186;-74
2023/03/02 05:15:44;;;;;;;33.67;27.73;;;;;;;-1.58;100.00;100432.63;5039443;28;20250;-73
2023/03/02 05:18:10;;;;;;;34.90;27.93;;;;;;;-1.56;100.00;100427.63;5038896;28;20297;-73
2023/03/02 05:20:37;;;;;;;36.00;28.77;;;;;;;-1.50;100.00;100421.94;5039606;28;20227;-73
2023/03/02 05:23:06;;;;;;;35.87;27.97;;;;;;;-1.54;100.00;100421.81;5041265;28;20207;-73
2023/03/02 05:25:34;;;;;;;35.97;28.33;;;;;;;-1.49;100.00;100421.16;5050652;28;20739;-73
2023/03/02 05:28:00;;;;;;;36.30;28.70;;;;;;;-1.53;100.00;100420.16;5042518;28;20223;-73
2023/03/02 05:30:26;;;;;;;38.77;29.03;;;;;;;-1.56;100.00;100420.88;5042643;28;20269;-73
2023/03/02 05:32:52;;;;;;;36.47;27.90;;;;;;;-1.57;100.00;100421.66;5047023;28;20272;-73
2023/03/02 05:35:19;;;;;;;36.10;29.20;;;;;;;-1.61;100.00;100429.97;5044380;28;20196;-73
2023/03/02 05:37:44;;;;;;;36.37;28.53;;;;;;;-1.65;100.00;100427.22;5046951;28;20689;-73
2023/03/02 05:40:19;;;;;;;34.87;28.43;;;;;;;-1.61;100.00;100435.06;5044088;28;20187;-73
2023/03/02 05:42:44;;;;;;;35.10;27.17;;;;;;;-1.60;100.00;100435.91;5058009;28;20194;-73
2023/03/02 05:45:20;;;;;;;32.50;27.53;;;;;;;-1.63;100.00;100436.66;5049147;28;20185;-73
2023/03/02 05:47:46;;;;;;;38.37;30.20;;;;;;;-1.65;100.00;100442.44;5039278;28;20212;-73
2023/03/02 05:50:12;;;;;;;37.77;29.37;;;;;;;-1.67;100.00;100441.53;5043213;28;20209;-73
2023/03/02 05:52:37;;;;;;;37.80;28.97;;;;;;;-1.71;100.00;100440.50;5044384;28;20210;-73
2023/03/02 05:55:02;;;;;;;36.53;28.80;;;;;;;-1.67;100.00;100444.06;5038219;28;20187;-73
2023/03/02 05:57:28;;;;;;;34.63;28.00;;;;;;;-1.65;100.00;100439.91;5048717;28;20243;-73
2023/03/02 05:59:53;;;;;;;36.47;28.00;;;;;;;-1.67;100.00;100442.41;5042391;28;20184;-73
2023/03/02 06:02:18;;;;;;;36.00;28.03;;;;;;;-1.64;100.00;100441.66;5057342;28;20220;-73
2023/03/02 06:04:44;;;;;;;33.80;28.07;;;;;;;-1.62;100.00;100447.66;5041436;28;20280;-73
2023/03/02 06:07:10;;;;;;;35.60;27.87;;;;;;;-1.67;100.00;100444.06;5048385;28;20222;-73
2023/03/02 06:09:37;;;;;;;34.83;28.13;;;;;;;-1.65;100.00;100450.94;5048056;28;20189;-73
2023/03/02 06:12:02;;;;;;;36.10;28.37;;;;;;;-1.67;100.00;100454.22;5046959;28;20194;-73
2023/03/02 06:14:27;;;;;;;39.17;29.83;;;;;;;-1.63;100.00;100454.41;5048598;28;20291;-73
2023/03/02 06:16:53;;;;;;;39.90;30.53;;;;;;;-1.60;100.00;100452.03;5050719;28;20288;-73
2023/03/02 06:19:18;;;;;;;35.67;28.30;;;;;;;-1.54;100.00;100462.41;5049221;28;20213;-73
2023/03/02 06:21:43;;;;;;;37.97;29.03;;;;;;;-1.54;100.00;100461.56;5049167;28;20194;-73
2023/03/02 06:24:08;;;;;;;36.50;28.63;;;;;;;-1.55;100.00;100462.38;5049768;28;20606;-73
2023/03/02 06:26:34;;;;;;;36.47;29.57;;;;;;;-1.49;100.00;100470.22;5049727;28;20232;-73
2023/03/02 06:28:59;;;;;;;34.90;28.00;;;;;;;-1.48;100.00;100463.50;5048596;28;20224;-73
2023/03/02 06:31:24;;;;;;;36.60;28.57;;;;;;;-1.49;100.00;100467.69;5046253;28;20598;-73
2023/03/02 06:33:50;;;;;;;33.07;28.23;;;;;;;-1.48;100.00;100469.44;5041941;28;20189;-73
2023/03/02 06:36:16;;;;;;;36.17;28.37;;;;;;;-1.44;100.00;100476.38;5048954;28;20173;-74
2023/03/02 06:38:41;;;;;;;34.10;28.00;;;;;;;-1.39;100.00;100474.91;5050263;28;20200;-73
2023/03/02 06:41:06;;;;;;;34.23;28.17;;;;;;;-1.34;100.00;100481.84;5046453;28;20189;-73
2023/03/02 06:43:32;;;;;;;32.90;27.33;;;;;;;-1.30;100.00;100487.13;5047100;28;20618;-73
2023/03/02 06:45:59;;;;;;;34.73;27.60;;;;;;;-1.25;100.00;100479.69;5055424;28;20223;-73
2023/03/02 06:48:24;;;;;;;34.30;27.50;;;;;;;-1.21;100.00;100480.69;5048361;28;20564;-74
2023/03/02 06:50:50;;;;;;;34.53;27.77;;;;;;;-1.18;100.00;100481.69;5047841;28;20197;-73
2023/03/02 06:53:17;;;;;;;32.90;26.93;;;;;;;-1.12;100.00;100481.94;5047130;28;20187;-73
2023/03/02 06:55:42;;;;;;;33.37;26.17;;;;;;;-1.06;100.00;100481.31;5049264;28;20180;-73
2023/03/02 06:58:11;;;;;;;33.57;27.87;;;;;;;-1.02;100.00;100483.19;5047569;28;20252;-72
2023/03/02 07:00:38;;;;;;;32.90;26.87;;;;;;;-0.98;100.00;100486.72;5041307;28;20271;-73
2023/03/02 07:03:03;;;;;;;31.83;27.67;;;;;;;-0.93;100.00;100496.28;5044703;28;20294;-73
2023/03/02 07:05:31;;;;;;;34.37;27.17;;;;;;;-0.92;100.00;100492.94;5048600;28;20624;-74
2023/03/02 07:07:59;;;;;;;35.00;26.93;;;;;;;-0.89;100.00;100498.94;5046570;28;20216;-73
2023/03/02 07:10:24;;;;;;;33.07;26.30;;;;;;;-0.85;100.00;100493.19;5047767;28;20194;-73
2023/03/02 07:12:49;;;;;;;34.03;27.20;;;;;;;-0.78;100.00;100502.78;5048060;28;20193;-73
2023/03/02 07:15:16;;;;;;;34.83;27.97;;;;;;;-0.67;100.00;100496.44;5051189;28;20186;-73
2023/03/02 07:17:43;;;;;;;31.53;25.80;;;;;;;-0.57;100.00;100497.69;5048983;28;20201;-73
2023/03/02 07:20:11;;;;;;;34.33;28.47;;;;;;;-0.49;100.00;100495.44;5052770;28;20184;-73
2023/03/02 07:22:36;;;;;;;31.63;26.77;;;;;;;-0.41;100.00;100494.09;5060236;28;20852;-74
2023/03/02 07:25:02;;;;;;;33.77;26.10;;;;;;;-0.34;100.00;100495.19;5051002;28;20290;-73
2023/03/02 07:27:27;;;;;;;31.03;26.83;;;;;;;-0.26;100.00;100498.03;5049657;28;20220;-74
2023/03/02 07:29:52;;;;;;;33.27;27.47;;;;;;;-0.21;100.00;100499.06;5038754;28;20262;-74
2023/03/02 07:32:18;;;;;;;39.60;27.43;;;;;;;-0.14;100.00;100500.16;5052340;28;20174;-73
2023/03/02 07:34:43;;;;;;;36.80;27.60;;;;;;;-0.06;100.00;100504.72;5049977;28;20643;-73
2023/03/02 07:37:08;;;;;;;35.80;26.13;;;;;;;0.07;100.00;100503.50;5051991;28;20187;-73
2023/03/02 07:39:34;;;;;;;37.43;26.43;;;;;;;0.20;100.00;100507.41;5048311;28;20195;-74
2023/03/02 07:42:01;;;;;;;36.07;27.37;;;;;;;0.31;100.00;100507.75;5051588;28;20932;-74
2023/03/02 07:44:27;;;;;;;36.50;28.20;;;;;;;0.42;100.00;100510.69;5053499;28;20187;-74
2023/03/02 07:46:53;;;;;;;33.47;25.73;;;;;;;0.53;99.53;100508.53;5049332;28;20329;-74
2023/03/02 07:49:18;;;;;;;36.27;26.80;;;;;;;0.65;98.75;100510.66;5051392;28;20203;-74
2023/03/02 07:51:44;;;;;;;31.50;26.27;;;;;;;0.75;98.28;100518.69;5051856;28;20182;-73
2023/03/02 07:54:09;;;;;;;29.70;25.37;;;;;;;0.80;97.60;100518.84;5051550;28;20236;-73
2023/03/02 07:56:35;;;;;;;30.23;25.40;;;;;;;0.95;97.50;100517.63;5052990;28;20270;-73
2023/03/02 07:59:00;;;;;;;32.80;26.90;;;;;;;0.96;96.05;100511.72;5050800;28;20222;-73
2023/03/02 08:01:26;;;;;;;91.23;34.40;;;;;;;1.02;96.25;100519.56;5039335;28;20197;-74
2023/03/02 08:03:52;;;;;;;147.57;46.30;;;;;;;1.13;96.12;100522.47;5053140;28;20298;-74
2023/03/02 08:06:17;;;;;;;110.47;39.57;;;;;;;1.25;95.66;100519.47;5047986;28;20898;-74
2023/03/02 08:08:42;;;;;;;47.23;29.70;;;;;;;1.33;95.13;100523.13;5047459;28;20260;-73
2023/03/02 08:11:10;;;;;;;97.57;41.93;;;;;;;1.36;94.72;100534.28;5058680;28;20568;-74
2023/03/02 08:13:36;;;;;;;59.17;31.57;;;;;;;1.44;94.59;100523.47;5041010;28;20186;-73
2023/03/02 08:16:03;;;;;;;66.03;36.87;;;;;;;1.52;94.17;100522.00;5046734;28;20283;-73
2023/03/02 08:18:29;;;;;;;37.60;29.20;;;;;;;1.58;93.78;100526.47;5044630;28;20210;-73
2023/03/02 08:20:54;;;;;;;43.97;32.03;;;;;;;1.70;93.54;100521.75;5047304;28;20585;-74
2023/03/02 08:23:20;;;;;;;34.60;27.80;;;;;;;1.80;93.15;100528.84;5041682;28;20241;-74
2023/03/02 08:25:46;;;;;;;43.03;33.13;;;;;;;1.92;92.58;100530.94;5052231;28;20195;-74
2023/03/02 08:28:11;;;;;;;36.43;30.03;;;;;;;2.06;92.34;100526.22;5042972;28;20257;-74
2023/03/02 08:30:36;;;;;;;39.70;32.47;;;;;;;2.16;91.99;100532.47;5047803;28;20195;-73
2023/03/02 08:33:02;;;;;;;68.33;46.97;;;;;;;2.32;91.81;100533.78;5049025;28;20186;-73
2023/03/02 08:35:27;;;;;;;41.10;32.83;;;;;;;2.44;91.16;100535.81;5043867;28;20225;-73
2023/03/02 08:37:53;;;;;;;33.97;28.23;;;;;;;2.42;90.52;100537.47;5045899;28;20255;-74
2023/03/02 08:40:18;;;;;;;34.50;27.23;;;;;;;2.61;90.63;100532.84;5057557;28;20190;-74
2023/03/02 08:42:43;;;;;;;38.07;30.10;;;;;;;2.74;90.69;100530.69;5041977;28;20263;-74
2023/03/02 08:45:09;;;;;;;39.03;28.87;;;;;;;2.83;89.54;100535.19;5046054;28;20463;-74
2023/03/02 08:47:34;;;;;;;34.60;27.83;;;;;;;2.91;89.05;100535.38;5044810;28;20272;-74
2023/03/02 08:49:59;;;;;;;33.33;26.57;;;;;;;3.05;89.08;100528.94;5041272;28;20205;-74
2023/03/02 08:52:25;;;;;;;59.77;40.50;;;;;;;3.13;87.95;100526.56;5041612;28;20252;-74
2023/03/02 08:54:50;;;;;;;37.77;32.77;;;;;;;3.21;87.76;100519.09;5042664;28;20191;-74
2023/03/02 08:57:15;;;;;;;32.30;27.97;;;;;;;3.16;86.78;100523.22;5046425;28;20187;-74
2023/03/02 08:59:41;;;;;;;32.90;28.57;;;;;;;3.31;87.04;100520.19;5045424;28;20627;-73
2023/03/02 09:02:08;;;;;;;28.17;25.27;;;;;;;3.46;86.48;100520.56;5043972;28;20301;-74
2023/03/02 09:04:34;;;;;;;30.90;25.70;;;;;;;3.59;85.71;100515.72;5046721;28;20194;-73
2023/03/02 09:06:59;;;;;;;27.90;24.93;;;;;;;3.43;85.11;100519.59;5045545;28;20302;-73
2023/03/02 09:09:24;;;;;;;29.67;26.47;;;;;;;3.46;85.16;100518.00;5046970;28;20208;-73
2023/03/02 09:11:50;;;;;;;30.23;26.23;;;;;;;3.54;85.06;100509.63;5045305;28;20657;-73
2023/03/02 09:14:15;;;;;;;31.80;25.73;;;;;;;3.57;84.86;100515.66;5047528;28;20237;-73
2023/03/02 09:16:41;;;;;;;30.90;24.83;;;;;;;3.68;84.95;100515.06;5045054;28;20175;-73
2023/03/02 09:19:06;;;;;;;30.07;26.63;;;;;;;3.71;84.27;100505.75;5042104;28;20276;-73
2023/03/02 09:21:31;;;;;;;42.10;27.03;;;;;;;3.69;84.51;100514.25;5044340;28;20182;-73
2023/03/02 09:23:57;;;;;;;28.07;25.17;;;;;;;3.83;84.03;100514.53;5047335;28;20671;-73
2023/03/02 09:26:24;;;;;;;28.77;25.43;;;;;;;3.79;83.88;100516.19;5045536;28;20211;-73
2023/03/02 09:28:49;;;;;;;29.07;25.80;;;;;;;3.97;83.70;100519.16;5043521;28;20645;-74
2023/03/02 09:31:14;;;;;;;28.53;25.67;;;;;;;4.23;83.34;100517.97;5044365;28;20278;-73
2023/03/02 09:33:40;;;;;;;28.00;25.03;;;;;;;4.34;82.35;100519.06;5042591;28;20278;-73
2023/03/02 09:36:07;;;;;;;27.40;24.57;;;;;;;4.37;81.82;100520.81;5043210;28;20203;-74
2023/03/02 09:38:33;;;;;;;32.80;26.53;;;;;;;4.30;81.58;100519.81;5039912;28;20222;-74
2023/03/02 09:41:19;;;;;;;28.07;24.97;;;;;;;4.46;81.46;100518.44;5061005;28;20709;-73
2023/03/02 09:44:06;;;;;;;27.83;24.90;;;;;;;4.58;81.28;100515.22;5045748;28;20191;-74
2023/03/02 09:46:46;;;;;;;30.43;24.93;;;;;;;4.70;80.62;100520.59;5043975;28;20214;-73
2023/03/02 09:49:36;;;;;;;36.57;25.47;;;;;;;5.00;80.05;100516.00;5048964;28;20239;-73
2023/03/02 09:52:07;;;;;;;27.73;23.53;;;;;;;5.22;79.29;100513.81;5041714;28;20183;-75
2023/03/02 09:54:33;;;;;;;31.07;25.57;;;;;;;5.11;79.23;100514.47;5040858;28;20274;-74
2023/03/02 09:57:00;;;;;;;30.37;24.90;;;;;;;5.33;79.84;100519.97;5050456;28;20185;-74
2023/03/02 09:59:28;;;;;;;28.33;25.20;;;;;;;5.43;78.92;100505.59;5045333;28;20706;-74
2023/03/02 10:02:27;;;;;;;42.60;28.17;;;;;;;5.57;78.48;100509.25;5050537;28;20565;-74
2023/03/02 10:04:55;;;;;;;42.87;27.17;;;;;;;5.67;78.23;100506.78;5048509;28;20200;-73
2023/03/02 10:07:28;;;;;;;26.87;24.00;;;;;;;5.67;77.85;100507.69;5075207;28;20208;-74
2023/03/02 10:09:57;;;;;;;51.37;29.67;;;;;;;5.69;77.42;100516.25;5070897;28;20201;-74
2023/03/02 10:12:55;;;;;;;33.10;25.83;;;;;;;5.64;77.64;100508.47;5049774;28;20307;-74
2023/03/02 10:15:37;;;;;;;29.43;25.33;;;;;;;5.77;77.53;100512.09;5049278;28;20627;-75
2023/03/02 10:18:33;;;;;;;36.73;25.50;;;;;;;5.85;77.42;100506.19;5055875;28;20771;-75
2023/03/02 10:21:28;;;;;;;25.97;23.17;;;;;;;6.09;77.32;100518.53;5037496;28;20566;-74
2023/03/02 10:24:17;;;;;;;83.97;32.80;;;;;;;6.03;76.48;100503.91;5053891;28;20188;-75
2023/03/02 10:26:42;;;;;;;36.17;26.27;;;;;;;6.35;76.06;100503.44;5043423;28;20716;-75
2023/03/02 10:29:38;;;;;;;27.50;24.00;;;;;;;6.61;75.31;100502.03;5051099;28;20209;-75
2023/03/02 10:32:21;;;;;;;33.27;24.67;;;;;;;6.82;75.29;100503.94;5041078;28;20197;-74
2023/03/02 10:34:49;;;;;;;27.17;24.37;;;;;;;6.94;74.25;100500.66;5043821;28;20196;-75
2023/03/02 10:37:23;;;;;;;28.07;25.30;;;;;;;6.93;74.46;100504.06;5049147;28;20185;-74
2023/03/02 10:39:49;;;;;;;43.67;26.97;;;;;;;7.05;74.20;100508.44;5047547;28;20228;-75
2023/03/02 10:42:25;;;;;;;33.43;24.77;;;;;;;7.03;73.91;100511.00;5065088;28;20181;-74
2023/03/02 10:44:55;;;;;;;29.03;24.47;;;;;;;6.93;73.61;100504.06;5047122;28;20190;-75
2023/03/02 10:47:24;;;;;;;27.67;24.77;;;;;;;6.68;74.50;100512.41;5051320;28;20308;-74
2023/03/02 10:49:51;;;;;;;45.73;27.20;;;;;;;6.60;74.84;100508.84;5056023;28;20664;-75
2023/03/02 10:52:24;;;;;;;25.70;22.80;;;;;;;6.37;75.69;100512.03;5056669;28;20185;-75
2023/03/02 10:55:20;;;;;;;26.43;23.73;;;;;;;6.37;76.10;100503.44;5048159;28;20484;-74
2023/03/02 10:58:17;;;;;;;24.90;22.43;;;;;;;6.36;77.00;100500.03;5050439;28;20221;-74
2023/03/02 11:00:42;;;;;;;25.37;22.90;;;;;;;6.41;77.11;100502.66;5045957;28;20200;-74
2023/03/02 11:03:20;;;;;;;28.77;25.80;;;;;;;6.32;77.21;100505.13;5047673;28;20193;-74
2023/03/02 11:05:46;;;;;;;24.87;22.37;;;;;;;6.29;77.77;100495.66;5045908;28;20186;-75
2023/03/02 11:08:22;;;;;;;26.37;23.33;;;;;;;6.17;78.35;100492.94;5046974;28;20206;-75
2023/03/02 11:10:55;;;;;;;25.57;22.87;;;;;;;6.08;78.85;100496.25;5046097;28;20276;-75